Time;durP1;ratioP1;P1;durP2;ratioP2;P2;SDS_P1;SDS_P2;PMS_P1;PMS_P2;Temp;Humidity;BMP_temperature;BMP_pressure;BME280_temperature;BME280_humidity;BME280_pressure;Samples;Min_cycle;Max_cycle;Signal;HPM_P1;HPM_P2
2021/10/05 00:00:45;;;;;;;7.00;3.30;;;;;;;14.84;72.36;100684.16;5030909;28;20040;-81
2021/10/05 00:03:10;;;;;;;6.22;2.90;;;;;;;14.88;72.39;100684.06;5063760;28;20072;-80
2021/10/05 00:05:35;;;;;;;5.95;3.05;;;;;;;14.99;71.88;100677.66;5069035;28;20043;-81
2021/10/05 00:08:01;;;;;;;5.05;2.53;;;;;;;15.02;71.57;100672.25;5047582;28;20037;-81
2021/10/05 00:10:26;;;;;;;4.90;2.50;;;;;;;15.06;71.52;100676.59;5068565;28;20094;-80
2021/10/05 00:12:52;;;;;;;8.50;2.80;;;;;;;15.07;71.77;100679.22;5065975;28;20032;-81
2021/10/05 00:15:18;;;;;;;6.47;2.70;;;;;;;15.11;71.21;100669.38;5049527;28;20033;-81
2021/10/05 00:17:44;;;;;;;4.90;2.53;;;;;;;15.12;71.32;100660.50;5066700;28;20153;-82
2021/10/05 00:20:10;;;;;;;6.60;2.30;;;;;;;15.11;71.14;100658.75;5065971;28;20045;-81
2021/10/05 00:22:36;;;;;;;6.35;2.38;;;;;;;15.09;70.98;100650.81;5066386;28;20463;-81
2021/10/05 00:25:01;;;;;;;5.95;2.65;;;;;;;15.04;70.73;100641.22;5047542;28;20075;-82
2021/10/05 00:27:26;;;;;;;5.53;2.40;;;;;;;15.04;71.11;100650.06;5070041;28;20040;-82
2021/10/05 00:29:52;;;;;;;4.00;2.28;;;;;;;15.01;70.86;100643.91;5047577;28;20068;-80
2021/10/05 00:32:17;;;;;;;7.78;2.70;;;;;;;15.02;70.73;100649.22;5068665;28;20079;-81
2021/10/05 00:34:42;;;;;;;5.40;2.20;;;;;;;15.07;70.68;100649.97;5064710;28;20025;-81
2021/10/05 00:37:08;;;;;;;5.03;2.17;;;;;;;15.08;70.32;100648.19;5068354;28;20079;-81
2021/10/05 00:39:33;;;;;;;4.57;1.98;;;;;;;15.08;70.06;100641.09;5066001;28;20072;-80
2021/10/05 00:41:58;;;;;;;5.85;2.05;;;;;;;15.10;69.91;100635.75;5067887;28;20407;-81
2021/10/05 00:44:39;;;;;;;6.00;1.80;;;;;;;15.10;69.44;100638.41;5066638;28;20044;-80
2021/10/05 00:47:09;;;;;;;7.05;2.20;;;;;;;15.00;69.19;100647.50;5061511;28;20045;-80
2021/10/05 00:49:36;;;;;;;4.32;2.25;;;;;;;14.99;69.56;100641.31;5060181;28;20044;-80
2021/10/05 00:52:02;;;;;;;7.88;2.10;;;;;;;14.88;69.61;100640.66;5068360;28;20040;-80
2021/10/05 00:54:30;;;;;;;5.82;1.90;;;;;;;14.82;69.83;100639.00;5062488;28;20043;-79
2021/10/05 00:56:56;;;;;;;5.70;2.13;;;;;;;14.83;69.86;100632.81;5026770;28;20045;-80
2021/10/05 00:59:21;;;;;;;7.07;2.03;;;;;;;14.76;70.15;100620.56;5064440;28;20039;-80
2021/10/05 01:01:47;;;;;;;5.85;2.00;;;;;;;14.77;69.98;100621.44;5067538;28;20043;-80
2021/10/05 01:04:12;;;;;;;6.85;1.73;;;;;;;14.83;69.87;100616.00;5059909;28;20107;-80
2021/10/05 01:06:46;;;;;;;3.85;1.70;;;;;;;14.83;69.69;100624.84;5066473;28;20169;-79
2021/10/05 01:09:12;;;;;;;4.85;1.70;;;;;;;14.82;69.67;100623.06;5067639;28;20065;-80
2021/10/05 01:11:37;;;;;;;6.57;1.80;;;;;;;14.84;69.96;100609.75;5067099;28;20066;-80
2021/10/05 01:14:03;;;;;;;5.00;1.60;;;;;;;14.79;69.59;100607.19;5064713;28;20060;-80
2021/10/05 01:16:28;;;;;;;6.68;1.70;;;;;;;14.82;69.65;100607.13;5066298;28;20407;-80
2021/10/05 01:18:53;;;;;;;5.90;1.63;;;;;;;14.86;69.64;100598.19;5063414;28;20041;-80
2021/10/05 01:21:19;;;;;;;4.50;1.55;;;;;;;14.85;69.62;100596.41;5047641;28;20048;-80
2021/10/05 01:23:46;;;;;;;4.75;1.90;;;;;;;14.87;69.54;100589.28;5066193;28;20036;-80
2021/10/05 01:26:11;;;;;;;5.57;1.98;;;;;;;14.88;69.40;100585.75;5044807;28;20414;-81
2021/10/05 01:28:37;;;;;;;3.60;1.83;;;;;;;14.89;69.42;100581.31;5064488;28;20033;-80
2021/10/05 01:31:02;;;;;;;5.97;1.90;;;;;;;14.95;69.43;100580.28;5066833;28;20024;-80
2021/10/05 01:33:29;;;;;;;4.43;1.98;;;;;;;14.98;69.39;100581.06;5045282;28;20037;-80
2021/10/05 01:35:54;;;;;;;5.85;1.67;;;;;;;14.96;69.95;100588.22;5038505;28;20076;-80
2021/10/05 01:38:20;;;;;;;7.25;2.22;;;;;;;14.98;69.86;100574.88;5066483;28;20118;-81
2021/10/05 01:40:46;;;;;;;10.00;3.05;;;;;;;14.89;70.27;100582.16;5063852;28;20041;-80
2021/10/05 01:43:11;;;;;;;4.78;1.63;;;;;;;14.82;71.00;100582.34;5063007;28;20044;-80
2021/10/05 01:45:38;;;;;;;5.65;1.98;;;;;;;14.78;71.68;100575.38;5047761;28;20033;-80
2021/10/05 01:48:05;;;;;;;5.72;1.90;;;;;;;14.76;72.00;100566.56;5046443;28;20039;-81
2021/10/05 01:50:31;;;;;;;8.18;1.92;;;;;;;14.74;72.06;100571.88;5047786;28;20111;-80
2021/10/05 01:52:56;;;;;;;5.45;1.90;;;;;;;14.70;73.51;100559.59;5046715;28;20060;-80
2021/10/05 01:55:22;;;;;;;6.13;2.03;;;;;;;14.77;72.73;100555.00;5064482;28;20048;-81
2021/10/05 01:57:48;;;;;;;4.90;1.90;;;;;;;14.74;72.66;100540.00;5031241;28;20029;-81
2021/10/05 02:00:13;;;;;;;6.80;2.40;;;;;;;14.74;73.09;100540.00;5063817;28;20033;-81
2021/10/05 02:02:39;;;;;;;5.13;2.05;;;;;;;14.74;73.07;100524.06;5065290;28;20032;-80
2021/10/05 02:05:05;;;;;;;6.70;2.05;;;;;;;14.66;73.52;100532.22;5062992;28;20037;-81
2021/10/05 02:07:30;;;;;;;5.00;1.83;;;;;;;14.64;73.79;100522.53;5066017;28;20564;-81
2021/10/05 02:09:56;;;;;;;4.15;1.52;;;;;;;14.71;73.67;100524.16;5045007;28;20036;-81
2021/10/05 02:12:21;;;;;;;9.48;2.88;;;;;;;14.73;73.75;100517.03;5047544;28;20070;-81
2021/10/05 02:14:47;;;;;;;11.10;2.28;;;;;;;14.75;73.22;100509.91;5062729;28;20041;-80
2021/10/05 02:17:14;;;;;;;5.65;1.92;;;;;;;14.77;73.11;100510.72;5047271;28;20047;-81
2021/10/05 02:19:40;;;;;;;4.10;2.00;;;;;;;14.73;73.53;100508.19;5063436;28;20501;-81
2021/10/05 02:22:06;;;;;;;7.85;1.92;;;;;;;14.65;73.69;100495.94;5064158;28;20049;-81
2021/10/05 02:24:42;;;;;;;3.65;1.42;;;;;;;14.69;73.58;100491.44;5065003;28;20063;-80
2021/10/05 02:27:12;;;;;;;4.90;2.00;;;;;;;14.68;73.67;100485.25;5065116;28;20541;-80
2021/10/05 02:29:39;;;;;;;4.78;1.70;;;;;;;14.71;74.14;100484.31;5044110;28;20029;-81
2021/10/05 02:32:06;;;;;;;5.53;1.80;;;;;;;14.73;74.16;100478.97;5064601;28;20055;-81
2021/10/05 02:34:32;;;;;;;6.00;1.98;;;;;;;14.72;73.86;100461.25;5061955;28;20069;-81
2021/10/05 02:36:57;;;;;;;5.50;1.75;;;;;;;14.72;73.94;100469.22;5064499;28;20494;-80
2021/10/05 02:39:22;;;;;;;5.30;2.25;;;;;;;14.61;74.20;100454.41;5062880;28;20513;-81
2021/10/05 02:41:48;;;;;;;8.52;1.90;;;;;;;14.57;74.30;100447.44;5063582;28;20032;-80
2021/10/05 02:44:13;;;;;;;7.75;2.35;;;;;;;14.53;74.92;100436.94;5028853;28;20110;-81
2021/10/05 02:46:39;;;;;;;5.57;2.22;;;;;;;14.52;75.10;100432.50;5062301;28;20040;-81
2021/10/05 02:49:05;;;;;;;5.43;1.60;;;;;;;14.56;75.24;100428.88;5063590;28;20040;-81
2021/10/05 02:51:30;;;;;;;3.35;1.90;;;;;;;14.56;75.40;100434.19;5041168;28;20487;-80
2021/10/05 02:53:57;;;;;;;6.55;2.10;;;;;;;14.58;75.21;100413.78;5064690;28;20063;-80
2021/10/05 02:56:22;;;;;;;4.90;2.38;;;;;;;14.54;75.75;100405.03;5061957;28;20426;-80
2021/10/05 02:58:47;;;;;;;4.50;2.08;;;;;;;14.49;76.24;100404.25;5066359;28;20039;-80
2021/10/05 03:01:13;;;;;;;5.80;1.95;;;;;;;14.47;76.24;100393.66;5061504;28;20045;-80
2021/10/05 03:03:38;;;;;;;7.07;2.22;;;;;;;14.40;76.59;100386.72;5059387;28;20033;-81
2021/10/05 03:06:03;;;;;;;4.07;1.80;;;;;;;14.42;76.53;100390.22;5061443;28;20047;-80
2021/10/05 03:08:29;;;;;;;4.38;1.90;;;;;;;14.47;76.90;100379.50;5063398;28;20037;-80
2021/10/05 03:10:58;;;;;;;5.65;2.13;;;;;;;14.58;76.68;100373.97;5062635;28;20040;-80
2021/10/05 03:13:24;;;;;;;6.28;2.00;;;;;;;14.62;76.58;100365.88;5063291;28;20029;-80
2021/10/05 03:15:49;;;;;;;6.22;2.67;;;;;;;14.63;76.83;100361.44;5044792;28;20040;-80
2021/10/05 03:18:14;;;;;;;7.45;2.75;;;;;;;14.62;76.90;100343.75;5062514;28;20092;-80
2021/10/05 03:20:40;;;;;;;7.75;2.65;;;;;;;14.60;77.24;100335.81;5062824;28;20496;-80
2021/10/05 03:23:05;;;;;;;6.53;2.40;;;;;;;14.55;77.73;100334.19;5061251;28;20075;-80
2021/10/05 03:25:30;;;;;;;7.28;3.08;;;;;;;14.48;77.55;100333.44;5033260;28;20087;-79
2021/10/05 03:27:56;;;;;;;7.57;2.38;;;;;;;14.42;78.36;100329.16;5062569;28;20032;-80
2021/10/05 03:30:21;;;;;;;6.53;2.70;;;;;;;14.42;78.18;100330.94;5035656;28;20041;-80
2021/10/05 03:32:46;;;;;;;8.57;2.80;;;;;;;14.39;78.60;100320.41;5069275;28;20079;-79
2021/10/05 03:35:12;;;;;;;6.82;3.00;;;;;;;14.42;78.21;100315.88;5022991;28;20048;-81
2021/10/05 03:37:37;;;;;;;5.35;2.25;;;;;;;14.43;78.54;100312.31;5063927;28;20036;-80
2021/10/05 03:40:04;;;;;;;6.15;2.55;;;;;;;14.44;78.93;100308.75;5048500;28;20064;-80
2021/10/05 03:42:31;;;;;;;6.93;2.70;;;;;;;14.43;78.36;100301.69;5067443;28;20044;-80
2021/10/05 03:44:57;;;;;;;6.70;2.70;;;;;;;14.37;79.00;100301.00;5067039;28;20476;-80
2021/10/05 03:47:22;;;;;;;6.80;3.03;;;;;;;14.34;79.05;100299.28;5049562;28;20087;-81
2021/10/05 03:49:48;;;;;;;6.88;3.35;;;;;;;14.36;78.86;100293.94;5072875;28;20028;-81
2021/10/05 03:52:13;;;;;;;5.78;2.67;;;;;;;14.33;79.04;100292.25;5066605;28;20042;-81
2021/10/05 03:54:38;;;;;;;7.93;3.08;;;;;;;14.31;79.43;100298.50;5069242;28;20028;-81
2021/10/05 03:57:04;;;;;;;5.43;2.38;;;;;;;14.33;79.02;100297.56;5065765;28;20040;-81
2021/10/05 03:59:29;;;;;;;8.68;3.25;;;;;;;14.36;79.04;100301.91;5069503;28;20044;-81
2021/10/05 04:01:54;;;;;;;7.38;3.17;;;;;;;14.34;79.08;100288.66;5048269;28;20094;-81
2021/10/05 04:04:20;;;;;;;6.88;2.67;;;;;;;14.30;79.50;100289.63;5063949;28;20085;-81
2021/10/05 04:06:45;;;;;;;5.80;2.83;;;;;;;14.26;79.91;100288.00;5050296;28;20115;-81
2021/10/05 04:09:10;;;;;;;7.72;2.72;;;;;;;14.21;79.87;100281.91;5066696;28;20743;-82
2021/10/05 04:11:36;;;;;;;5.35;2.70;;;;;;;14.11;79.66;100278.63;5067926;28;20524;-81
2021/10/05 04:14:02;;;;;;;6.25;2.53;;;;;;;14.03;80.03;100273.50;5061231;28;20033;-81
2021/10/05 04:16:27;;;;;;;6.28;2.67;;;;;;;13.93;79.76;100273.75;5063656;28;20033;-81
2021/10/05 04:18:53;;;;;;;8.20;3.30;;;;;;;13.82;81.70;100277.53;5065436;28;20063;-81
2021/10/05 04:21:19;;;;;;;7.05;2.72;;;;;;;13.73;81.94;100283.06;5068477;28;20078;-81
2021/10/05 04:23:44;;;;;;;7.25;2.75;;;;;;;13.79;81.63;100277.63;5061887;28;20029;-81
2021/10/05 04:26:10;;;;;;;6.05;3.22;;;;;;;13.85;81.50;100271.28;5031407;28;20032;-81
2021/10/05 04:28:35;;;;;;;8.77;3.00;;;;;;;13.88;81.49;100273.00;5058716;28;20475;-81
2021/10/05 04:31:00;;;;;;;8.95;3.22;;;;;;;13.88;81.84;100268.56;5059056;28;20024;-81
2021/10/05 04:33:26;;;;;;;6.10;3.35;;;;;;;13.84;81.57;100252.78;5039434;28;20132;-81
2021/10/05 04:35:51;;;;;;;8.95;3.50;;;;;;;13.76;82.03;100255.59;5059389;28;20048;-81
2021/10/05 04:38:17;;;;;;;6.03;3.05;;;;;;;13.69;82.21;100243.38;5061737;28;20029;-81
2021/10/05 04:40:42;;;;;;;7.40;3.10;;;;;;;13.63;82.05;100244.41;5049156;28;20518;-81
2021/10/05 04:43:07;;;;;;;6.50;2.63;;;;;;;13.57;82.43;100237.47;5066167;28;20127;-81
2021/10/05 04:45:33;;;;;;;8.50;3.22;;;;;;;13.58;82.72;100233.03;5060087;28;20081;-81
2021/10/05 04:47:58;;;;;;;7.47;3.30;;;;;;;13.59;83.40;100227.69;5065828;28;20162;-81
2021/10/05 04:50:23;;;;;;;8.00;3.05;;;;;;;13.61;83.18;100234.75;5045788;28;20083;-81
2021/10/05 04:52:49;;;;;;;6.03;2.85;;;;;;;13.67;82.75;100234.59;5061066;28;20070;-81
2021/10/05 04:55:14;;;;;;;6.70;2.50;;;;;;;13.67;82.88;100226.63;5062574;28;20052;-82
2021/10/05 04:57:39;;;;;;;7.65;3.30;;;;;;;13.65;82.79;100224.03;5046513;28;20043;-82
2021/10/05 05:00:07;;;;;;;5.75;2.95;;;;;;;13.74;82.74;100226.47;5049828;28;20045;-82
2021/10/05 05:02:32;;;;;;;5.85;3.28;;;;;;;13.76;82.66;100210.53;5066007;28;20055;-82
2021/10/05 05:04:58;;;;;;;5.68;3.45;;;;;;;13.78;82.91;100209.56;5064183;28;20574;-82
2021/10/05 05:07:23;;;;;;;7.18;3.97;;;;;;;13.79;82.96;100197.19;5062856;28;20044;-81
2021/10/05 05:09:48;;;;;;;8.27;4.50;;;;;;;13.72;83.65;100190.28;5035614;28;20021;-82
2021/10/05 05:12:14;;;;;;;6.63;3.00;;;;;;;13.72;83.46;100188.47;5063948;28;20044;-82
2021/10/05 05:14:39;;;;;;;9.52;4.15;;;;;;;13.73;83.83;100198.19;5064534;28;20036;-81
2021/10/05 05:17:04;;;;;;;7.18;3.28;;;;;;;13.77;83.54;100188.38;5065337;28;20055;-82
2021/10/05 05:19:30;;;;;;;7.18;3.30;;;;;;;13.78;83.42;100191.00;5063530;28;20082;-82
2021/10/05 05:21:59;;;;;;;5.30;2.88;;;;;;;13.77;83.42;100183.06;5064703;28;20094;-82
2021/10/05 05:24:25;;;;;;;7.70;3.00;;;;;;;13.72;83.22;100183.19;5061978;28;20075;-82
2021/10/05 05:26:50;;;;;;;5.70;3.33;;;;;;;13.78;83.51;100176.84;5062730;28;20032;-82
2021/10/05 05:29:15;;;;;;;6.97;3.25;;;;;;;13.83;82.83;100174.94;5063008;28;20058;-82
2021/10/05 05:31:41;;;;;;;7.10;3.67;;;;;;;13.81;83.55;100169.69;5066991;28;20470;-82
2021/10/05 05:34:06;;;;;;;7.88;3.42;;;;;;;13.86;83.24;100164.28;5059058;28;20496;-82
2021/10/05 05:36:31;;;;;;;5.55;3.40;;;;;;;13.89;83.27;100156.25;5035695;28;20514;-82
2021/10/05 05:38:56;;;;;;;5.68;3.03;;;;;;;13.90;83.23;100136.75;5060338;28;20040;-82
2021/10/05 05:41:22;;;;;;;8.20;3.65;;;;;;;13.92;83.37;100140.25;5061999;28;20400;-82
2021/10/05 05:43:47;;;;;;;6.03;3.58;;;;;;;13.90;83.30;100139.41;5040932;28;20457;-82
2021/10/05 05:46:12;;;;;;;7.88;3.53;;;;;;;13.87;84.02;100139.50;5058843;28;20173;-82
2021/10/05 05:48:38;;;;;;;6.18;3.63;;;;;;;13.87;83.85;100146.59;5053881;28;20430;-82
2021/10/05 05:51:04;;;;;;;7.93;3.95;;;;;;;13.87;83.86;100146.59;5064063;28;20036;-82
2021/10/05 05:53:29;;;;;;;8.02;4.10;;;;;;;13.88;83.87;100141.22;5053407;28;20064;-82
2021/10/05 05:55:55;;;;;;;6.07;3.17;;;;;;;13.96;83.86;100141.03;5048737;28;20107;-82
2021/10/05 05:58:20;;;;;;;6.53;3.60;;;;;;;14.00;83.64;100143.56;5058765;28;20091;-81
2021/10/05 06:00:46;;;;;;;7.88;4.10;;;;;;;13.98;83.39;100134.75;5064939;28;20032;-82
2021/10/05 06:03:12;;;;;;;7.45;3.88;;;;;;;13.97;84.11;100127.72;5062634;28;20033;-82
2021/10/05 06:05:38;;;;;;;7.05;3.85;;;;;;;14.01;83.50;100134.69;5065455;28;20056;-82
2021/10/05 06:08:04;;;;;;;8.23;4.30;;;;;;;13.99;84.38;100123.25;5063892;28;20032;-82
2021/10/05 06:10:30;;;;;;;7.70;3.28;;;;;;;14.00;83.89;100121.47;5045498;28;20059;-82
2021/10/05 06:12:55;;;;;;;7.30;4.00;;;;;;;14.07;83.75;100114.19;5045929;28;20048;-82
2021/10/05 06:15:21;;;;;;;10.65;5.00;;;;;;;14.07;83.93;100111.53;5046358;28;20037;-82
2021/10/05 06:17:49;;;;;;;8.18;4.00;;;;;;;14.07;83.98;100111.53;5064697;28;20040;-82
2021/10/05 06:20:21;;;;;;;8.55;4.72;;;;;;;14.05;84.35;100101.00;5046185;28;20071;-82
2021/10/05 06:22:47;;;;;;;;;;;;;;;14.06;84.72;100097.41;5046815;28;20066;-82
2021/10/05 06:25:18;;;;;;;9.93;4.60;;;;;;;14.19;84.20;100098.81;5029167;28;20019;-82
2021/10/05 06:27:44;;;;;;;6.18;3.72;;;;;;;14.22;83.91;100096.06;5046260;28;20513;-82
2021/10/05 06:30:12;;;;;;;9.05;4.72;;;;;;;14.23;84.25;100081.03;5067452;28;20037;-82
2021/10/05 06:32:38;;;;;;;6.22;3.67;;;;;;;14.23;83.88;100076.59;5062282;28;20064;-82
2021/10/05 06:35:04;;;;;;;7.80;4.55;;;;;;;14.24;84.17;100086.28;5064361;28;20532;-82
2021/10/05 06:37:30;;;;;;;6.75;4.07;;;;;;;14.28;83.86;100088.84;5044847;28;20040;-82
2021/10/05 06:39:55;;;;;;;7.22;4.78;;;;;;;14.34;83.74;100083.38;5064387;28;20466;-82
2021/10/05 06:42:20;;;;;;;8.63;4.03;;;;;;;14.38;83.53;100075.31;5061720;28;20040;-82
2021/10/05 06:44:46;;;;;;;7.57;4.63;;;;;;;14.39;83.47;100070.84;5059276;28;20037;-82
2021/10/05 06:47:11;;;;;;;8.52;4.78;;;;;;;14.43;83.40;100060.06;5065572;28;20384;-82
2021/10/05 06:49:36;;;;;;;7.88;4.32;;;;;;;14.46;83.65;100051.16;5061912;28;20032;-82
2021/10/05 06:52:03;;;;;;;6.57;4.40;;;;;;;14.61;83.21;100063.13;5064820;28;20062;-82
2021/10/05 06:54:29;;;;;;;8.38;4.88;;;;;;;14.78;82.25;100055.53;5044187;28;20045;-82
2021/10/05 06:56:54;;;;;;;7.38;4.28;;;;;;;14.93;81.86;100056.81;5064071;28;20099;-82
2021/10/05 06:59:19;;;;;;;8.63;5.05;;;;;;;15.05;81.21;100050.25;5062669;28;20039;-82
2021/10/05 07:01:45;;;;;;;8.48;5.00;;;;;;;15.14;81.29;100049.94;5027600;28;20029;-82
2021/10/05 07:04:10;;;;;;;7.60;5.28;;;;;;;15.31;80.79;100041.44;5055738;28;20522;-82
2021/10/05 07:06:37;;;;;;;8.23;4.50;;;;;;;15.31;80.49;100046.75;5045592;28;20052;-82
2021/10/05 07:09:03;;;;;;;9.73;5.43;;;;;;;15.30;80.67;100045.91;5036612;28;20028;-82
2021/10/05 07:11:29;;;;;;;11.95;4.85;;;;;;;15.30;80.53;100050.31;5053847;28;20077;-82
2021/10/05 07:13:54;;;;;;;10.35;5.35;;;;;;;15.38;80.33;100042.09;5050160;28;20028;-82
2021/10/05 07:16:19;;;;;;;10.15;5.30;;;;;;;15.43;80.32;100048.13;5053365;28;20077;-82
2021/10/05 07:18:45;;;;;;;9.60;5.45;;;;;;;15.38;80.33;100042.97;5030768;28;20479;-83
2021/10/05 07:21:10;;;;;;;9.73;5.45;;;;;;;15.38;80.42;100045.63;5063427;28;20040;-83
2021/10/05 07:23:35;;;;;;;9.43;5.72;;;;;;;15.38;80.18;100048.28;5029749;28;20040;-82
2021/10/05 07:26:01;;;;;;;6.85;5.28;;;;;;;15.41;80.02;100053.50;5044897;28;20036;-82
2021/10/05 07:28:26;;;;;;;7.82;5.38;;;;;;;15.42;79.58;100044.59;5063817;28;20032;-82
2021/10/05 07:30:51;;;;;;;9.50;6.50;;;;;;;15.39;79.76;100047.38;5045734;28;20403;-83
2021/10/05 07:33:17;;;;;;;9.48;6.45;;;;;;;15.43;79.78;100041.03;5062819;28;20482;-82
2021/10/05 07:35:42;;;;;;;9.35;6.30;;;;;;;15.46;79.59;100035.59;5063807;28;20146;-82
2021/10/05 07:38:08;;;;;;;11.25;6.75;;;;;;;15.47;79.74;100039.13;5061015;28;20408;-82
2021/10/05 07:40:34;;;;;;;8.30;5.57;;;;;;;15.49;79.85;100034.63;5047703;28;20032;-82
2021/10/05 07:43:02;;;;;;;11.18;6.35;;;;;;;15.49;79.65;100024.00;5041969;28;20102;-83
2021/10/05 07:45:29;;;;;;;8.63;6.03;;;;;;;15.48;79.96;100020.47;5046221;28;20085;-82
2021/10/05 07:47:55;;;;;;;9.85;5.97;;;;;;;15.46;80.55;100021.44;5042413;28;20044;-83
2021/10/05 07:50:21;;;;;;;10.52;6.93;;;;;;;15.49;80.72;100018.69;5064707;28;20032;-82
2021/10/05 07:52:47;;;;;;;11.88;7.00;;;;;;;15.56;80.89;100006.88;5060304;28;20037;-82
2021/10/05 07:55:12;;;;;;;10.20;6.30;;;;;;;15.64;81.27;100001.28;5046330;28;20091;-83
2021/10/05 07:57:38;;;;;;;18.65;10.10;;;;;;;15.75;81.10;99993.84;5043698;28;20025;-82
2021/10/05 08:00:05;;;;;;;13.35;8.88;;;;;;;15.88;80.87;99994.28;5045173;28;20392;-83
2021/10/05 08:02:36;;;;;;;;;;;;;;;15.98;81.08;99993.00;5061459;28;20102;-84
2021/10/05 08:05:02;;;;;;;13.40;9.50;;;;;;;16.13;80.17;99979.13;5012994;28;20294;-83
2021/10/05 08:07:27;;;;;;;12.57;9.38;;;;;;;16.26;79.91;99982.19;5044593;28;20042;-82
2021/10/05 08:09:55;;;;;;;11.73;7.00;;;;;;;16.39;78.90;99971.94;5062851;28;20120;-83
2021/10/05 08:12:21;;;;;;;15.05;8.05;;;;;;;16.45;79.12;99974.34;5044743;28;20036;-83
2021/10/05 08:14:47;;;;;;;11.95;8.10;;;;;;;16.50;78.81;99961.72;5044745;28;20124;-82
2021/10/05 08:17:13;;;;;;;13.23;8.63;;;;;;;16.57;78.39;99959.69;5062996;28;20078;-82
2021/10/05 08:19:38;;;;;;;13.30;9.88;;;;;;;16.63;78.33;99962.94;5062330;28;20071;-82
2021/10/05 08:22:04;;;;;;;12.73;9.70;;;;;;;16.70;78.02;99957.41;5045758;28;20036;-82
2021/10/05 08:24:30;;;;;;;11.18;7.70;;;;;;;16.75;78.26;99953.63;5046590;28;20083;-82
2021/10/05 08:26:56;;;;;;;10.93;7.93;;;;;;;16.83;77.62;99948.00;5049553;28;20040;-83
2021/10/05 08:29:22;;;;;;;11.52;8.38;;;;;;;16.90;77.68;99943.28;5030716;28;20131;-82
2021/10/05 08:31:49;;;;;;;12.68;8.30;;;;;;;17.01;77.54;99938.38;5049964;28;20044;-83
2021/10/05 08:34:14;;;;;;;11.23;8.73;;;;;;;17.13;76.96;99942.31;5020305;28;20056;-83
2021/10/05 08:36:40;;;;;;;13.68;9.95;;;;;;;17.23;76.89;99935.66;5046035;28;20491;-83
2021/10/05 08:39:05;;;;;;;12.40;8.45;;;;;;;17.36;76.26;99922.66;5061308;28;20503;-82
2021/10/05 08:41:31;;;;;;;15.00;10.43;;;;;;;17.47;76.50;99925.72;5066949;28;20036;-82
2021/10/05 08:43:59;;;;;;;17.13;12.10;;;;;;;17.56;76.15;99922.66;5047169;28;20040;-83
2021/10/05 08:46:26;;;;;;;17.30;11.40;;;;;;;17.68;75.80;99915.88;5048880;28;20044;-83
2021/10/05 08:48:52;;;;;;;13.57;10.48;;;;;;;17.86;75.23;99909.72;5048217;28;20024;-83
2021/10/05 08:51:17;;;;;;;13.43;9.15;;;;;;;18.10;74.06;99902.41;5048258;28;20499;-83
2021/10/05 08:53:42;;;;;;;15.88;12.50;;;;;;;18.27;74.03;99908.75;5048676;28;20041;-83
2021/10/05 08:56:10;;;;;;;16.25;12.90;;;;;;;18.30;73.87;99901.44;5047993;28;20064;-83
2021/10/05 08:58:37;;;;;;;15.23;12.40;;;;;;;18.47;73.99;99897.06;5048899;28;20043;-83
2021/10/05 09:01:08;;;;;;;15.27;12.10;;;;;;;18.66;72.31;99889.91;5047737;28;20093;-83
2021/10/05 09:03:33;;;;;;;17.35;12.80;;;;;;;18.77;72.38;99906.28;5067707;28;20071;-82
2021/10/05 09:06:09;;;;;;;17.17;12.75;;;;;;;18.81;71.91;99899.88;5047588;28;20124;-83
2021/10/05 09:08:39;;;;;;;15.57;11.68;;;;;;;18.80;71.76;99900.78;5067085;28;20028;-83
2021/10/05 09:11:05;;;;;;;15.60;11.70;;;;;;;18.81;71.93;99896.31;5033566;28;20041;-83
2021/10/05 09:13:38;;;;;;;19.60;14.38;;;;;;;18.65;72.39;99898.00;5047325;28;20058;-83
2021/10/05 09:16:15;;;;;;;18.15;14.00;;;;;;;18.66;72.42;99900.59;5048760;28;20355;-83
2021/10/05 09:18:51;;;;;;;16.67;13.35;;;;;;;18.71;71.87;99877.19;5050546;28;20115;-83
2021/10/05 09:21:16;;;;;;;18.17;12.73;;;;;;;18.87;72.00;99881.78;5045486;28;20040;-83
2021/10/05 09:23:58;;;;;;;17.45;12.80;;;;;;;18.86;71.22;99880.03;5067625;28;20078;-83
2021/10/05 09:26:36;;;;;;;18.85;14.02;;;;;;;18.94;70.81;99878.72;5049495;28;20040;-83
2021/10/05 09:29:22;;;;;;;17.48;12.25;;;;;;;19.17;70.29;99871.31;5027390;28;20141;-83
2021/10/05 09:31:48;;;;;;;16.45;12.00;;;;;;;19.28;70.30;99871.59;5048848;28;20033;-83
2021/10/05 09:34:13;;;;;;;15.90;12.00;;;;;;;19.44;68.85;99877.00;5057215;28;20037;-83
2021/10/05 09:36:39;;;;;;;14.70;11.27;;;;;;;19.55;68.89;99869.28;5046832;28;20032;-83
2021/10/05 09:39:04;;;;;;;15.10;11.60;;;;;;;19.61;67.81;99868.94;5048963;28;20053;-83
2021/10/05 09:41:29;;;;;;;17.52;12.32;;;;;;;19.46;68.61;99869.78;5046917;28;20044;-83
2021/10/05 09:44:01;;;;;;;15.60;11.75;;;;;;;19.37;69.29;99865.78;5048159;28;20039;-83
2021/10/05 09:46:26;;;;;;;14.73;11.13;;;;;;;19.34;69.14;99873.13;5048091;28;20098;-83
2021/10/05 09:49:00;;;;;;;15.10;11.60;;;;;;;19.37;68.93;99876.47;5033209;28;20040;-83
2021/10/05 09:51:25;;;;;;;14.98;11.93;;;;;;;19.33;68.71;99874.03;5048114;28;20468;-83
2021/10/05 09:53:52;;;;;;;14.93;11.68;;;;;;;19.42;69.25;99881.59;5066067;28;20068;-83
2021/10/05 09:56:20;;;;;;;14.05;10.88;;;;;;;19.35;69.52;99877.50;5064723;28;20112;-83
2021/10/05 09:58:45;;;;;;;16.58;11.75;;;;;;;19.35;69.14;99862.31;5067285;28;20036;-83
2021/10/05 10:01:11;;;;;;;14.60;11.52;;;;;;;19.29;69.60;99856.44;5046444;28;20442;-84
2021/10/05 10:03:36;;;;;;;16.52;12.45;;;;;;;19.40;68.98;99856.72;5060976;28;20478;-83
2021/10/05 10:06:02;;;;;;;14.13;11.68;;;;;;;19.32;69.14;99870.50;5065274;28;20059;-78
2021/10/05 10:08:31;;;;;;;14.52;11.77;;;;;;;19.18;69.12;99870.38;5065505;28;20044;-83
2021/10/05 10:10:57;;;;;;;14.93;10.95;;;;;;;19.10;69.47;99870.78;5040462;28;20040;-83
2021/10/05 10:13:23;;;;;;;14.73;10.95;;;;;;;18.93;69.53;99865.44;5045042;28;20127;-83
2021/10/05 10:15:49;;;;;;;15.60;10.25;;;;;;;18.86;69.97;99866.66;5045913;28;20124;-83
2021/10/05 10:18:19;;;;;;;12.75;10.80;;;;;;;18.73;70.50;99856.59;5063516;28;20045;-84
2021/10/05 10:20:53;;;;;;;17.15;12.48;;;;;;;18.61;71.20;99859.88;5039129;28;20043;-84
2021/10/05 10:23:25;;;;;;;12.27;10.73;;;;;;;18.43;71.64;99866.13;5038005;28;20048;-84
2021/10/05 10:26:02;;;;;;;14.18;11.13;;;;;;;18.29;72.96;99869.47;5059517;28;20063;-84
2021/10/05 10:28:40;;;;;;;13.48;10.88;;;;;;;18.34;73.18;99868.31;5018071;28;20091;-83
2021/10/05 10:31:28;;;;;;;13.27;9.77;;;;;;;18.41;72.06;99863.50;5045004;28;20036;-83
2021/10/05 10:33:53;;;;;;;16.38;11.30;;;;;;;18.45;72.36;99861.59;5061978;28;20047;-83
2021/10/05 10:36:38;;;;;;;13.30;11.70;;;;;;;18.42;72.40;99867.94;5045642;28;20402;-83
2021/10/05 10:39:15;;;;;;;13.00;9.88;;;;;;;18.52;72.15;99871.00;5039995;28;20036;-83
2021/10/05 10:41:44;;;;;;;12.43;9.90;;;;;;;18.56;72.23;99867.25;5009495;28;20025;-83
2021/10/05 10:44:12;;;;;;;10.65;9.18;;;;;;;18.72;71.28;99862.00;5046410;28;20079;-83
2021/10/05 10:46:39;;;;;;;12.38;9.50;;;;;;;18.87;70.70;99853.25;5044471;28;20044;-84
2021/10/05 10:49:25;;;;;;;14.05;9.57;;;;;;;18.86;70.29;99856.84;5046413;28;20067;-83
2021/10/05 10:51:50;;;;;;;12.88;9.32;;;;;;;18.96;69.57;99858.09;5046021;28;20044;-83
2021/10/05 10:54:20;;;;;;;11.88;10.23;;;;;;;18.98;68.64;99858.03;5062079;28;20112;-83
2021/10/05 10:56:56;;;;;;;12.20;9.48;;;;;;;18.98;69.95;99858.03;5030237;28;20041;-83
2021/10/05 10:59:26;;;;;;;13.27;11.00;;;;;;;18.93;69.32;99850.25;5024394;28;20037;-83
2021/10/05 11:01:52;;;;;;;13.27;9.93;;;;;;;18.82;69.63;99848.13;5065634;28;20033;-84
2021/10/05 11:04:19;;;;;;;13.13;10.07;;;;;;;18.82;69.91;99839.25;5049685;28;20111;-84
2021/10/05 11:06:47;;;;;;;13.82;10.80;;;;;;;18.74;69.50;99833.38;5061813;28;20040;-84
2021/10/05 11:09:13;;;;;;;14.68;9.98;;;;;;;18.69;70.16;99833.63;5047261;28;20029;-84
2021/10/05 11:11:42;;;;;;;14.52;10.75;;;;;;;18.54;70.85;99832.56;5044185;28;20047;-84
2021/10/05 11:14:10;;;;;;;12.50;9.60;;;;;;;18.60;69.71;99831.41;5057866;28;20534;-83
2021/10/05 11:16:38;;;;;;;14.77;9.70;;;;;;;18.70;69.52;99837.16;5054364;28;20418;-83
2021/10/05 11:19:16;;;;;;;11.98;9.55;;;;;;;18.72;69.43;99828.09;5031361;28;20067;-84
2021/10/05 11:21:44;;;;;;;12.32;9.55;;;;;;;18.80;69.21;99833.09;5059309;28;20110;-83